Time;durP1;ratioP1;P1;durP2;ratioP2;P2;SDS_P1;SDS_P2;PMS_P1;PMS_P2;Temp;Humidity;BMP_temperature;BMP_pressure;BME280_temperature;BME280_humidity;BME280_pressure;Samples;Min_cycle;Max_cycle;Signal;HPM_P1;HPM_P2
2022/09/25 00:01:53;;;;;;;22.58;16.12;;;;;;;;;;2347907;57;21037;-77
2022/09/25 00:04:20;;;;;;;21.52;15.82;;;;;;;;;;2346715;57;21041;-76
2022/09/25 00:06:48;;;;;;;22.20;14.75;;;;;;;;;;2594247;53;21120;-77
2022/09/25 00:09:19;;;;;;;25.67;16.15;;;;;;;;;;2595513;53;21113;-76
2022/09/25 00:11:46;;;;;;;21.05;15.88;;;;;;;;;;2347453;57;21050;-74
2022/09/25 00:14:13;;;;;;;22.33;16.52;;;;;;;;;;2594214;52;21034;-76
2022/09/25 00:16:40;;;;;;;26.00;17.30;;;;;;;;;;2347117;57;21034;-74
2022/09/25 00:21:55;;;;;;;21.12;15.57;;;;;;;;;;2346383;57;21033;-73
2022/09/25 00:24:22;;;;;;;25.00;16.87;;;;;;;;;;2347261;57;21517;-76
2022/09/25 00:26:49;;;;;;;22.13;16.33;;;;;;;;;;2594560;52;21577;-75
2022/09/25 00:29:18;;;;;;;22.17;16.27;;;;;;;;;;2594598;53;21164;-76
2022/09/25 00:31:45;;;;;;;27.10;17.65;;;;;;;;;;2594316;53;21512;-76
2022/09/25 00:34:12;;;;;;;22.05;15.82;;;;;;;;;;2347130;57;21054;-77
2022/09/25 00:36:39;;;;;;;18.23;13.13;;;;;;;;;;2594626;53;21528;-77
2022/09/25 00:39:06;;;;;;;21.70;15.88;;;;;;;;;;2347132;57;21173;-77
2022/09/25 00:41:34;;;;;;;22.45;16.23;;;;;;;;;;2346679;57;21029;-77
2022/09/25 00:44:02;;;;;;;16.52;11.63;;;;;;;;;;2346588;57;21042;-76
2022/09/25 00:46:31;;;;;;;19.70;14.48;;;;;;;;;;2346522;57;21085;-77
2022/09/25 00:49:02;;;;;;;23.10;14.77;;;;;;;;;;2594522;53;21034;-74
2022/09/25 00:51:33;;;;;;;20.75;14.52;;;;;;;;;;2347594;57;21113;-76
2022/09/25 00:54:03;;;;;;;19.87;13.43;;;;;;;;;;2594974;52;21117;-76
2022/09/25 00:56:34;;;;;;;25.65;17.17;;;;;;;;;;2594365;53;21081;-73
2022/09/25 00:59:01;;;;;;;26.27;17.50;;;;;;;;;;2594381;53;21038;-76
2022/09/25 01:01:29;;;;;;;23.05;15.73;;;;;;;;;;2595272;52;21038;-77
2022/09/25 01:03:56;;;;;;;21.17;13.88;;;;;;;;;;2345831;57;21047;-76
2022/09/25 01:06:25;;;;;;;19.60;12.45;;;;;;;;;;2593368;53;21306;-77
2022/09/25 01:08:52;;;;;;;18.42;12.73;;;;;;;;;;2346185;57;21529;-76
2022/09/25 01:11:19;;;;;;;18.67;12.43;;;;;;;;;;2346669;57;21181;-77
2022/09/25 01:13:46;;;;;;;21.00;12.90;;;;;;;;;;2346816;57;21524;-76
2022/09/25 01:16:16;;;;;;;17.37;12.82;;;;;;;;;;2593675;53;21046;-76
2022/09/25 01:18:49;;;;;;;21.17;13.13;;;;;;;;;;2346365;57;21034;-77
2022/09/25 01:21:22;;;;;;;24.45;15.77;;;;;;;;;;2591851;52;21036;-74
2022/09/25 01:24:03;;;;;;;18.42;12.57;;;;;;;;;;2345419;57;21081;-77
2022/09/25 01:26:44;;;;;;;21.08;14.63;;;;;;;;;;2346319;57;21058;-76
2022/09/25 01:29:12;;;;;;;24.27;16.35;;;;;;;;;;2346085;57;21038;-75
2022/09/25 01:31:42;;;;;;;28.00;18.52;;;;;;;;;;2592205;53;21060;-75
2022/09/25 01:34:13;;;;;;;26.83;17.10;;;;;;;;;;2591888;52;21073;-77
2022/09/25 01:36:43;;;;;;;28.20;18.35;;;;;;;;;;2592900;53;21042;-76
2022/09/25 01:39:12;;;;;;;27.58;18.17;;;;;;;;;;2593732;52;21106;-76
2022/09/25 01:41:44;;;;;;;24.12;16.05;;;;;;;;;;2346432;57;21188;-77
2022/09/25 01:44:13;;;;;;;25.85;17.00;;;;;;;;;;2346081;57;21030;-77
2022/09/25 01:46:42;;;;;;;22.27;14.18;;;;;;;;;;2345911;57;21026;-76
2022/09/25 01:49:12;;;;;;;26.48;17.60;;;;;;;;;;2344925;57;21552;-76
2022/09/25 01:51:41;;;;;;;27.20;16.98;;;;;;;;;;2593691;53;21603;-76
2022/09/25 01:54:09;;;;;;;25.48;17.02;;;;;;;;;;2346198;57;21058;-76
2022/09/25 01:56:39;;;;;;;25.80;16.73;;;;;;;;;;2592920;53;21320;-76
2022/09/25 01:59:08;;;;;;;24.55;15.95;;;;;;;;;;2346039;57;21094;-77
2022/09/25 02:01:37;;;;;;;33.05;19.77;;;;;;;;;;2346732;57;21096;-77
2022/09/25 02:04:07;;;;;;;26.70;17.17;;;;;;;;;;2346655;57;21131;-77
2022/09/25 02:06:37;;;;;;;40.80;22.02;;;;;;;;;;2592935;53;21093;-77
2022/09/25 02:09:07;;;;;;;30.02;18.80;;;;;;;;;;2346321;57;21313;-77
2022/09/25 02:11:40;;;;;;;31.15;19.58;;;;;;;;;;2593572;53;21041;-74
2022/09/25 02:14:11;;;;;;;32.47;19.27;;;;;;;;;;2346569;57;21096;-77
2022/09/25 02:16:42;;;;;;;35.08;20.37;;;;;;;;;;2345587;57;21088;-77
2022/09/25 02:21:58;;;;;;;29.77;17.92;;;;;;;;;;2346726;57;21048;-75
2022/09/25 02:24:29;;;;;;;41.00;22.13;;;;;;;;;;2593821;52;21613;-77
2022/09/25 02:26:56;;;;;;;31.58;17.15;;;;;;;;;;2346499;57;21034;-77
2022/09/25 02:29:23;;;;;;;30.77;16.48;;;;;;;;;;2347163;57;21108;-78
2022/09/25 02:31:54;;;;;;;31.05;19.33;;;;;;;;;;2594342;53;21030;-77
2022/09/25 02:34:22;;;;;;;31.17;18.35;;;;;;;;;;2593942;52;21105;-77
2022/09/25 02:36:49;;;;;;;33.00;20.15;;;;;;;;;;2592729;53;21061;-76
2022/09/25 02:39:19;;;;;;;31.60;19.35;;;;;;;;;;2345039;57;21113;-77
2022/09/25 02:41:51;;;;;;;28.35;18.12;;;;;;;;;;2347117;57;21122;-75
2022/09/25 02:44:25;;;;;;;25.08;14.93;;;;;;;;;;2346967;57;21567;-77
2022/09/25 02:46:59;;;;;;;28.15;17.12;;;;;;;;;;2346520;57;21058;-75
2022/09/25 02:49:29;;;;;;;32.70;20.80;;;;;;;;;;2346803;57;21069;-75
2022/09/25 02:52:00;;;;;;;30.52;18.67;;;;;;;;;;2594099;53;21735;-75
2022/09/25 02:54:31;;;;;;;25.23;15.85;;;;;;;;;;2345520;57;21556;-77
2022/09/25 02:57:02;;;;;;;34.70;19.67;;;;;;;;;;2346171;57;21523;-78
2022/09/25 02:59:33;;;;;;;25.35;16.52;;;;;;;;;;2594208;52;21518;-76
2022/09/25 03:02:01;;;;;;;31.50;20.88;;;;;;;;;;2594205;53;21041;-77
2022/09/25 03:04:31;;;;;;;33.65;20.30;;;;;;;;;;2346055;57;21034;-77
2022/09/25 03:06:58;;;;;;;26.87;17.00;;;;;;;;;;2345946;57;21121;-77
2022/09/25 03:09:26;;;;;;;31.50;19.42;;;;;;;;;;2346447;57;21322;-77
2022/09/25 03:11:54;;;;;;;33.85;20.08;;;;;;;;;;2346549;57;21582;-77
2022/09/25 03:14:21;;;;;;;31.08;19.92;;;;;;;;;;2346608;57;21098;-77
2022/09/25 03:16:50;;;;;;;27.65;17.52;;;;;;;;;;2345951;57;21041;-77
2022/09/25 03:19:18;;;;;;;34.47;22.15;;;;;;;;;;2346840;57;21544;-77
2022/09/25 03:21:46;;;;;;;41.30;23.92;;;;;;;;;;2346458;57;21026;-77
2022/09/25 03:24:13;;;;;;;29.92;18.35;;;;;;;;;;2346505;57;21167;-77
2022/09/25 03:26:41;;;;;;;32.67;20.92;;;;;;;;;;2593068;53;21046;-74
2022/09/25 03:29:09;;;;;;;25.50;16.70;;;;;;;;;;2593289;52;21057;-77
2022/09/25 03:31:36;;;;;;;21.75;14.40;;;;;;;;;;2591409;53;21105;-77
2022/09/25 03:34:03;;;;;;;21.23;14.38;;;;;;;;;;2346860;57;21041;-75
2022/09/25 03:36:31;;;;;;;23.85;15.95;;;;;;;;;;2346081;57;21069;-77
2022/09/25 03:38:59;;;;;;;27.55;18.23;;;;;;;;;;2593907;53;21144;-77
2022/09/25 03:41:27;;;;;;;32.75;19.95;;;;;;;;;;2346768;57;21120;-76
2022/09/25 03:43:55;;;;;;;35.88;19.70;;;;;;;;;;2345128;57;21058;-77
2022/09/25 03:46:24;;;;;;;24.35;15.80;;;;;;;;;;2592174;53;21042;-77
2022/09/25 03:48:52;;;;;;;25.05;15.63;;;;;;;;;;2346636;57;21033;-78
2022/09/25 03:51:19;;;;;;;27.42;18.37;;;;;;;;;;2593586;53;21041;-77
2022/09/25 03:53:47;;;;;;;35.97;22.77;;;;;;;;;;2593424;52;21124;-76
2022/09/25 03:56:16;;;;;;;29.42;18.20;;;;;;;;;;2346294;57;21041;-77
2022/09/25 03:58:44;;;;;;;35.45;21.98;;;;;;;;;;2346145;57;21050;-77
2022/09/25 04:01:11;;;;;;;36.80;21.45;;;;;;;;;;2346165;57;21060;-75
2022/09/25 04:03:38;;;;;;;35.97;20.33;;;;;;;;;;2593774;52;21061;-77
2022/09/25 04:06:07;;;;;;;38.65;22.35;;;;;;;;;;2346323;57;21550;-76
2022/09/25 04:08:34;;;;;;;38.40;21.15;;;;;;;;;;2593841;53;21049;-77
2022/09/25 04:11:02;;;;;;;38.28;23.00;;;;;;;;;;2592863;53;21117;-75
2022/09/25 04:13:30;;;;;;;47.78;26.62;;;;;;;;;;2346274;57;21037;-76
2022/09/25 04:15:58;;;;;;;34.53;19.62;;;;;;;;;;2346186;57;21093;-77
2022/09/25 04:18:27;;;;;;;57.33;27.00;;;;;;;;;;2592836;53;21037;-76
2022/09/25 04:20:54;;;;;;;48.70;27.15;;;;;;;;;;2593758;53;21310;-77
2022/09/25 04:23:21;;;;;;;48.20;27.05;;;;;;;;;;2593296;52;21160;-76
2022/09/25 04:25:48;;;;;;;55.40;27.02;;;;;;;;;;2345760;57;21041;-77
2022/09/25 04:28:16;;;;;;;41.95;22.58;;;;;;;;;;2592895;53;21120;-77
2022/09/25 04:30:43;;;;;;;43.92;23.60;;;;;;;;;;2346566;57;21651;-74
2022/09/25 04:35:55;;;;;;;47.75;27.27;;;;;;;;;;2345384;57;21492;-76
2022/09/25 04:38:23;;;;;;;39.10;22.33;;;;;;;;;;2346460;57;21038;-76
2022/09/25 04:40:50;;;;;;;64.45;27.55;;;;;;;;;;2346628;57;21165;-77
2022/09/25 04:43:17;;;;;;;46.97;25.92;;;;;;;;;;2346831;57;21046;-77
2022/09/25 04:45:46;;;;;;;49.92;25.52;;;;;;;;;;2345724;57;21061;-77
2022/09/25 04:48:13;;;;;;;49.85;26.23;;;;;;;;;;2346410;57;21054;-76
2022/09/25 04:50:40;;;;;;;84.57;33.13;;;;;;;;;;2346361;57;21375;-77
2022/09/25 04:53:07;;;;;;;50.65;26.23;;;;;;;;;;2346783;57;21608;-77
2022/09/25 04:55:34;;;;;;;51.47;25.20;;;;;;;;;;2346242;57;21054;-75
2022/09/25 04:58:02;;;;;;;68.65;29.08;;;;;;;;;;2346787;57;21105;-77
2022/09/25 05:00:30;;;;;;;47.55;22.13;;;;;;;;;;2592865;53;21042;-75
2022/09/25 05:02:57;;;;;;;44.97;25.00;;;;;;;;;;2593988;53;21571;-74
2022/09/25 05:05:26;;;;;;;61.00;30.33;;;;;;;;;;2345876;57;21619;-77
2022/09/25 05:07:54;;;;;;;53.08;25.85;;;;;;;;;;2346219;57;21042;-74
2022/09/25 05:10:22;;;;;;;69.45;32.33;;;;;;;;;;2593958;53;21054;-76
2022/09/25 05:12:54;;;;;;;60.88;30.33;;;;;;;;;;2346644;57;21122;-76
2022/09/25 05:15:21;;;;;;;46.95;27.70;;;;;;;;;;2592712;52;21101;-76
2022/09/25 05:17:48;;;;;;;43.50;22.13;;;;;;;;;;2594144;53;21113;-77
2022/09/25 05:20:16;;;;;;;36.50;19.85;;;;;;;;;;2346622;57;21536;-77
2022/09/25 05:22:43;;;;;;;36.50;21.17;;;;;;;;;;2346742;57;21133;-78
2022/09/25 05:25:10;;;;;;;34.33;20.15;;;;;;;;;;2346118;57;21041;-77
2022/09/25 05:27:37;;;;;;;49.88;27.35;;;;;;;;;;2593883;53;21061;-77
2022/09/25 05:30:08;;;;;;;43.70;25.23;;;;;;;;;;2593981;53;21125;-75
2022/09/25 05:32:35;;;;;;;36.13;19.20;;;;;;;;;;2347130;57;21062;-76
2022/09/25 05:35:03;;;;;;;46.03;26.58;;;;;;;;;;2346753;57;21105;-77
2022/09/25 05:37:30;;;;;;;47.92;22.13;;;;;;;;;;2345265;57;21041;-77
2022/09/25 05:39:57;;;;;;;40.22;22.70;;;;;;;;;;2346520;57;21042;-76
2022/09/25 05:42:24;;;;;;;65.32;30.67;;;;;;;;;;2346921;57;21122;-77
2022/09/25 05:44:52;;;;;;;49.40;26.80;;;;;;;;;;2346912;57;21116;-77
2022/09/25 05:47:19;;;;;;;44.00;23.08;;;;;;;;;;2346388;57;21580;-77
2022/09/25 05:49:46;;;;;;;43.75;23.05;;;;;;;;;;2592884;53;21046;-77
2022/09/25 05:52:14;;;;;;;54.65;28.75;;;;;;;;;;2346836;57;21105;-77
2022/09/25 05:54:41;;;;;;;44.30;24.08;;;;;;;;;;2346813;57;21057;-77
2022/09/25 05:57:08;;;;;;;60.10;31.23;;;;;;;;;;2345881;57;21045;-77
2022/09/25 05:59:35;;;;;;;53.92;29.42;;;;;;;;;;2594330;52;21037;-77
2022/09/25 06:02:02;;;;;;;51.35;28.42;;;;;;;;;;2346942;57;21041;-76
2022/09/25 06:04:30;;;;;;;32.50;19.42;;;;;;;;;;2593777;52;21045;-77
2022/09/25 06:06:59;;;;;;;28.90;17.27;;;;;;;;;;2345229;57;21113;-74
2022/09/25 06:09:27;;;;;;;43.10;25.17;;;;;;;;;;2347049;57;21069;-77
2022/09/25 06:11:54;;;;;;;50.50;27.30;;;;;;;;;;2346673;57;21056;-77
2022/09/25 06:14:21;;;;;;;62.05;30.70;;;;;;;;;;2593583;53;21050;-75
2022/09/25 06:16:49;;;;;;;101.07;38.22;;;;;;;;;;2593753;53;21109;-77
2022/09/25 06:19:16;;;;;;;48.55;27.37;;;;;;;;;;2592270;52;21114;-76
2022/09/25 06:21:43;;;;;;;53.17;29.35;;;;;;;;;;2346335;57;21041;-76
2022/09/25 06:24:11;;;;;;;44.60;26.60;;;;;;;;;;2346721;57;21105;-76
2022/09/25 06:26:38;;;;;;;48.83;26.42;;;;;;;;;;2593054;52;21548;-77
2022/09/25 06:29:06;;;;;;;43.87;25.55;;;;;;;;;;2593893;53;21026;-76
2022/09/25 06:31:33;;;;;;;55.97;29.48;;;;;;;;;;2346701;57;21058;-77
2022/09/25 06:34:02;;;;;;;42.10;24.48;;;;;;;;;;2593294;53;21650;-74
2022/09/25 06:36:30;;;;;;;46.28;26.15;;;;;;;;;;2345609;57;21631;-73
2022/09/25 06:38:57;;;;;;;45.20;26.40;;;;;;;;;;2346546;57;21041;-74
2022/09/25 06:41:25;;;;;;;56.58;29.08;;;;;;;;;;2593721;52;21536;-76
2022/09/25 06:43:52;;;;;;;51.58;28.80;;;;;;;;;;2346416;57;21124;-76
2022/09/25 06:46:20;;;;;;;46.63;25.80;;;;;;;;;;2593320;53;21046;-76
2022/09/25 06:48:52;;;;;;;35.92;20.73;;;;;;;;;;2592969;53;21558;-77
2022/09/25 06:51:20;;;;;;;39.90;22.75;;;;;;;;;;2346335;57;21049;-76
2022/09/25 06:53:47;;;;;;;47.92;27.67;;;;;;;;;;2346157;57;21113;-77
2022/09/25 06:56:14;;;;;;;47.70;27.20;;;;;;;;;;2346056;57;21576;-74
2022/09/25 06:58:41;;;;;;;56.05;30.23;;;;;;;;;;2347057;57;21161;-76
2022/09/25 07:01:10;;;;;;;41.85;23.77;;;;;;;;;;2345762;57;21062;-74
2022/09/25 07:03:44;;;;;;;37.15;22.85;;;;;;;;;;2346300;57;21105;-76
2022/09/25 07:06:12;;;;;;;43.00;24.55;;;;;;;;;;2592576;53;21058;-74
2022/09/25 07:08:39;;;;;;;50.70;27.87;;;;;;;;;;2346303;57;21080;-75
2022/09/25 07:11:06;;;;;;;47.75;26.95;;;;;;;;;;2346776;57;21043;-76
2022/09/25 07:13:34;;;;;;;37.20;22.17;;;;;;;;;;2593976;52;21100;-76
2022/09/25 07:16:02;;;;;;;52.55;27.13;;;;;;;;;;2346257;57;21078;-74
2022/09/25 07:18:30;;;;;;;42.60;23.27;;;;;;;;;;2593493;53;21038;-74
2022/09/25 07:23:36;;;;;;;44.78;23.42;;;;;;;;;;2362272;56;22089;-77
2022/09/25 07:26:05;;;;;;;42.20;22.48;;;;;;;;;;2628315;52;21099;-75
2022/09/25 07:28:32;;;;;;;37.92;20.98;;;;;;;;;;2628325;52;22178;-77
2022/09/25 07:30:59;;;;;;;41.45;22.62;;;;;;;;;;2375118;56;21046;-76
2022/09/25 07:33:26;;;;;;;31.40;18.95;;;;;;;;;;2628363;52;21305;-74
2022/09/25 07:35:54;;;;;;;42.10;23.12;;;;;;;;;;2627197;52;21106;-76
2022/09/25 07:38:21;;;;;;;38.38;20.92;;;;;;;;;;2374356;56;21126;-74
2022/09/25 07:40:48;;;;;;;31.62;19.65;;;;;;;;;;2628076;52;21186;-76
2022/09/25 07:43:16;;;;;;;39.00;22.30;;;;;;;;;;2627432;52;21129;-77
2022/09/25 07:45:52;;;;;;;35.65;21.55;;;;;;;;;;2373218;56;21055;-76
2022/09/25 07:48:21;;;;;;;34.53;20.62;;;;;;;;;;2374573;56;21043;-77
2022/09/25 07:50:48;;;;;;;45.12;25.60;;;;;;;;;;2505458;54;71512;-82
2022/09/25 07:53:17;;;;;;;38.55;23.00;;;;;;;;;;2287575;59;21094;-81
2022/09/25 07:55:44;;;;;;;38.40;22.17;;;;;;;;;;2523048;55;21082;-82
2022/09/25 07:58:11;;;;;;;38.88;22.45;;;;;;;;;;2289587;59;21134;-81
2022/09/25 08:00:39;;;;;;;42.78;24.25;;;;;;;;;;2289633;59;21070;-81
2022/09/25 08:03:08;;;;;;;35.15;20.35;;;;;;;;;;2289614;59;21090;-82
2022/09/25 08:05:35;;;;;;;34.80;19.15;;;;;;;;;;2524259;55;21082;-82
2022/09/25 08:08:03;;;;;;;43.55;23.55;;;;;;;;;;2290326;59;21090;-82
2022/09/25 08:10:31;;;;;;;37.13;20.20;;;;;;;;;;2289654;59;21115;-81
2022/09/25 08:12:59;;;;;;;34.92;18.67;;;;;;;;;;2289786;59;21657;-82
2022/09/25 08:15:26;;;;;;;34.50;19.20;;;;;;;;;;2524065;55;21134;-82
2022/09/25 08:17:53;;;;;;;33.10;19.30;;;;;;;;;;2524599;55;21556;-82
2022/09/25 08:20:21;;;;;;;36.53;19.17;;;;;;;;;;2524419;55;21170;-82
2022/09/25 08:22:48;;;;;;;31.55;17.83;;;;;;;;;;2288920;59;21552;-82
2022/09/25 08:25:15;;;;;;;41.20;21.60;;;;;;;;;;2523956;55;21070;-81
2022/09/25 08:27:43;;;;;;;28.30;17.05;;;;;;;;;;2523548;55;21595;-82
2022/09/25 08:30:12;;;;;;;38.10;20.65;;;;;;;;;;2289237;59;21862;-82
2022/09/25 08:32:39;;;;;;;31.77;18.10;;;;;;;;;;2523896;55;21196;-82
2022/09/25 08:35:07;;;;;;;28.92;16.85;;;;;;;;;;2523167;55;21082;-82
2022/09/25 08:37:35;;;;;;;31.40;18.55;;;;;;;;;;2288333;59;21063;-81
2022/09/25 08:40:02;;;;;;;31.75;18.15;;;;;;;;;;2289189;59;21130;-82
2022/09/25 08:42:31;;;;;;;34.03;19.83;;;;;;;;;;2288631;59;21642;-81
2022/09/25 08:50:32;;;;;;;31.87;19.98;;;;;;;;;;2288952;59;21026;-80
2022/09/25 08:53:03;;;;;;;27.70;17.20;;;;;;;;;;2523050;55;21083;-83
2022/09/25 08:58:22;;;;;;;30.23;18.48;;;;;;;;;;2288994;59;21106;-82
2022/09/25 09:00:50;;;;;;;26.98;15.98;;;;;;;;;;2522577;55;21471;-83
2022/09/25 09:03:18;;;;;;;33.50;19.17;;;;;;;;;;2288527;59;21047;-83
2022/09/25 09:05:46;;;;;;;23.10;14.73;;;;;;;;;;2521096;55;21099;-83
2022/09/25 09:08:14;;;;;;;29.52;17.65;;;;;;;;;;2289038;59;21083;-82
2022/09/25 09:10:43;;;;;;;21.75;14.23;;;;;;;;;;2289205;59;21091;-83
2022/09/25 09:13:15;;;;;;;25.83;15.38;;;;;;;;;;2289201;59;21108;-82
2022/09/25 09:15:44;;;;;;;25.95;16.75;;;;;;;;;;2522870;55;21060;-82
2022/09/25 09:18:19;;;;;;;27.58;18.20;;;;;;;;;;2523016;55;21158;-79
2022/09/25 09:20:51;;;;;;;28.10;17.52;;;;;;;;;;2289056;59;21134;-82
2022/09/25 09:23:19;;;;;;;36.80;20.48;;;;;;;;;;2288943;59;21051;-82
2022/09/25 09:25:51;;;;;;;24.83;15.73;;;;;;;;;;2521696;55;21087;-81
2022/09/25 09:28:28;;;;;;;23.33;14.73;;;;;;;;;;2287904;59;21063;-82
2022/09/25 09:31:05;;;;;;;34.38;18.73;;;;;;;;;;2288473;59;21170;-81
2022/09/25 09:33:40;;;;;;;25.17;14.77;;;;;;;;;;2289027;59;21182;-81
2022/09/25 09:36:11;;;;;;;32.33;18.40;;;;;;;;;;2288681;59;21106;-82
2022/09/25 09:38:43;;;;;;;24.67;15.35;;;;;;;;;;2288672;59;21063;-82
2022/09/25 09:41:16;;;;;;;29.85;16.58;;;;;;;;;;2288888;59;21142;-82
2022/09/25 09:43:49;;;;;;;30.08;17.90;;;;;;;;;;2288634;59;21190;-82
2022/09/25 09:46:20;;;;;;;24.23;14.93;;;;;;;;;;2522670;55;21115;-82
2022/09/25 09:49:00;;;;;;;36.13;18.50;;;;;;;;;;2288400;59;21122;-82
2022/09/25 09:51:30;;;;;;;21.73;14.32;;;;;;;;;;2287798;59;21066;-81
2022/09/25 09:54:00;;;;;;;21.50;13.07;;;;;;;;;;2521610;55;21059;-81
2022/09/25 09:56:30;;;;;;;25.33;16.45;;;;;;;;;;2520749;55;21062;-82
2022/09/25 09:58:58;;;;;;;24.45;15.27;;;;;;;;;;2288351;59;21083;-82
2022/09/25 10:01:28;;;;;;;23.58;14.40;;;;;;;;;;2522739;55;21115;-83
2022/09/25 10:03:58;;;;;;;26.92;16.20;;;;;;;;;;2289342;59;21095;-83
2022/09/25 10:06:28;;;;;;;27.37;16.67;;;;;;;;;;2288989;59;21075;-83
2022/09/25 10:08:55;;;;;;;26.05;15.88;;;;;;;;;;2288220;59;21109;-80
2022/09/25 10:11:23;;;;;;;25.45;16.52;;;;;;;;;;2523965;55;21135;-84
2022/09/25 10:13:50;;;;;;;29.77;18.67;;;;;;;;;;2287655;59;21166;-83
2022/09/25 10:16:19;;;;;;;23.98;15.90;;;;;;;;;;2522812;55;21082;-81
2022/09/25 10:18:49;;;;;;;20.92;14.02;;;;;;;;;;2289249;59;21063;-82
2022/09/25 10:21:18;;;;;;;28.23;17.73;;;;;;;;;;2288947;59;21043;-82
2022/09/25 10:23:49;;;;;;;25.75;16.73;;;;;;;;;;2287331;59;21187;-81
2022/09/25 10:26:24;;;;;;;27.95;17.42;;;;;;;;;;2288302;59;21138;-82
2022/09/25 10:28:51;;;;;;;28.05;17.83;;;;;;;;;;2523095;55;21070;-81
2022/09/25 10:31:19;;;;;;;22.70;15.20;;;;;;;;;;2522789;55;21123;-81
2022/09/25 10:33:58;;;;;;;22.15;14.52;;;;;;;;;;2287928;59;21102;-81
2022/09/25 10:36:31;;;;;;;20.37;13.98;;;;;;;;;;2288261;59;21082;-81
2022/09/25 10:38:58;;;;;;;25.27;15.70;;;;;;;;;;2522178;55;21083;-81
2022/09/25 10:41:26;;;;;;;21.55;14.90;;;;;;;;;;2522867;55;21111;-82
2022/09/25 10:43:54;;;;;;;21.62;15.30;;;;;;;;;;2288062;59;21090;-81
2022/09/25 10:52:04;;;;;;;22.80;14.38;;;;;;;;;;2288080;59;21014;-82
2022/09/25 10:54:32;;;;;;;21.17;14.75;;;;;;;;;;2288404;59;21059;-81
2022/09/25 10:56:59;;;;;;;20.77;13.70;;;;;;;;;;2520798;55;21098;-82
2022/09/25 10:59:27;;;;;;;21.37;14.60;;;;;;;;;;2287811;59;21107;-83
2022/09/25 11:01:55;;;;;;;34.45;18.90;;;;;;;;;;2288595;59;21074;-82
2022/09/25 11:04:23;;;;;;;24.25;16.75;;;;;;;;;;2523360;55;21142;-82
2022/09/25 11:06:52;;;;;;;19.25;14.13;;;;;;;;;;2287914;59;21130;-82
2022/09/25 11:09:21;;;;;;;33.85;19.58;;;;;;;;;;2288975;59;21166;-82
2022/09/25 11:11:48;;;;;;;23.55;17.62;;;;;;;;;;2289088;59;22154;-82
2022/09/25 11:14:21;;;;;;;21.83;15.30;;;;;;;;;;2287961;59;21142;-83
2022/09/25 11:16:49;;;;;;;20.40;14.80;;;;;;;;;;2522639;55;21133;-82
2022/09/25 11:19:19;;;;;;;22.85;14.52;;;;;;;;;;2522903;55;21113;-80
2022/09/25 11:21:56;;;;;;;29.50;17.95;;;;;;;;;;2523132;55;21062;-82
2022/09/25 11:24:26;;;;;;;20.55;13.65;;;;;;;;;;2522172;55;21062;-82
2022/09/25 11:26:59;;;;;;;20.37;14.30;;;;;;;;;;2287440;59;21082;-81
2022/09/25 11:29:35;;;;;;;22.87;14.35;;;;;;;;;;2288502;59;21126;-82
2022/09/25 11:32:05;;;;;;;23.25;14.40;;;;;;;;;;2521154;55;21059;-81
2022/09/25 11:34:38;;;;;;;18.67;14.00;;;;;;;;;;2522588;55;21090;-82
2022/09/25 11:37:09;;;;;;;19.58;14.95;;;;;;;;;;2522152;55;21059;-83
2022/09/25 11:42:27;;;;;;;19.17;11.90;;;;;;;;;;2288681;59;21559;-81
2022/09/25 11:44:59;;;;;;;16.58;11.50;;;;;;;;;;2522158;55;21511;-82
2022/09/25 11:47:29;;;;;;;20.23;15.27;;;;;;;;;;2287025;59;21408;-81
2022/09/25 11:49:58;;;;;;;15.63;11.73;;;;;;;;;;2286885;59;21146;-81
2022/09/25 11:52:36;;;;;;;20.37;11.63;;;;;;;;;;2288214;59;21639;-81
2022/09/25 11:55:20;;;;;;;14.48;11.10;;;;;;;;;;2521784;55;21055;-80
2022/09/25 11:57:54;;;;;;;14.10;10.23;;;;;;;;;;2288075;59;21555;-82
2022/09/25 12:00:24;;;;;;;15.13;11.12;;;;;;;;;;2288218;59;21058;-81
2022/09/25 12:03:02;;;;;;;18.05;12.32;;;;;;;;;;2287280;59;21054;-81
2022/09/25 12:05:39;;;;;;;16.10;11.10;;;;;;;;;;2287097;59;21059;-82
2022/09/25 12:08:18;;;;;;;15.80;11.38;;;;;;;;;;2520662;55;21047;-82
2022/09/25 12:10:52;;;;;;;16.52;12.13;;;;;;;;;;2289159;59;21058;-82
2022/09/25 12:13:22;;;;;;;18.95;13.82;;;;;;;;;;2287116;59;21333;-83
2022/09/25 12:15:57;;;;;;;28.27;16.40;;;;;;;;;;2288198;59;21186;-83
2022/09/25 12:18:33;;;;;;;16.10;11.95;;;;;;;;;;2285502;59;21843;-83
2022/09/25 12:21:02;;;;;;;18.85;12.57;;;;;;;;;;2522937;55;21039;-82
2022/09/25 12:23:32;;;;;;;23.00;15.77;;;;;;;;;;2523394;55;21087;-83
2022/09/25 12:26:05;;;;;;;21.52;13.27;;;;;;;;;;2288508;59;21094;-83
2022/09/25 12:28:35;;;;;;;17.98;11.90;;;;;;;;;;2523485;55;21554;-83
2022/09/25 12:31:07;;;;;;;15.25;12.20;;;;;;;;;;2289494;59;21130;-84
2022/09/25 12:33:37;;;;;;;13.57;10.18;;;;;;;;;;2523515;55;21138;-82
2022/09/25 12:36:07;;;;;;;16.25;10.85;;;;;;;;;;2521774;55;21071;-83
2022/09/25 12:38:40;;;;;;;13.15;9.20;;;;;;;;;;2289055;59;21051;-83
2022/09/25 12:41:10;;;;;;;11.87;7.10;;;;;;;;;;2523453;55;21118;-82
2022/09/25 12:43:41;;;;;;;9.43;6.40;;;;;;;;;;2523763;55;21063;-83
2022/09/25 12:46:13;;;;;;;80.93;31.05;;;;;;;;;;2288785;59;21154;-82
2022/09/25 12:48:43;;;;;;;16.30;8.07;;;;;;;;;;2288567;59;21265;-83
2022/09/25 12:51:14;;;;;;;14.18;6.62;;;;;;;;;;2288312;59;21074;-83
2022/09/25 12:53:44;;;;;;;11.63;6.40;;;;;;;;;;2520985;55;21078;-82
2022/09/25 12:56:13;;;;;;;8.65;5.37;;;;;;;;;;2288378;59;21050;-83
2022/09/25 12:58:49;;;;;;;9.35;6.05;;;;;;;;;;2289143;59;21047;-83
2022/09/25 13:01:19;;;;;;;10.95;6.47;;;;;;;;;;2289313;59;21059;-83
2022/09/25 13:03:48;;;;;;;8.07;6.00;;;;;;;;;;2287877;59;21110;-83
2022/09/25 13:06:18;;;;;;;9.98;6.70;;;;;;;;;;2522487;55;21134;-81
2022/09/25 13:08:49;;;;;;;9.25;6.60;;;;;;;;;;2289306;59;21658;-81
2022/09/25 13:11:19;;;;;;;11.38;6.30;;;;;;;;;;2523656;55;21154;-82
2022/09/25 13:13:48;;;;;;;11.00;7.47;;;;;;;;;;2289872;59;21067;-82
2022/09/25 13:16:16;;;;;;;9.63;6.45;;;;;;;;;;2288197;59;21086;-82
2022/09/25 13:18:47;;;;;;;10.55;7.40;;;;;;;;;;2522617;55;21051;-82
2022/09/25 13:21:24;;;;;;;13.45;8.30;;;;;;;;;;2288377;59;21142;-82
2022/09/25 13:23:53;;;;;;;20.62;11.25;;;;;;;;;;2523296;55;21588;-82
2022/09/25 13:26:23;;;;;;;9.85;7.47;;;;;;;;;;2522931;55;21110;-84
2022/09/25 13:28:53;;;;;;;8.68;7.12;;;;;;;;;;2289211;59;21133;-82
2022/09/25 13:31:25;;;;;;;8.32;5.72;;;;;;;;;;2289228;59;21074;-81
2022/09/25 13:33:54;;;;;;;7.97;6.75;;;;;;;;;;2289141;59;21145;-83
2022/09/25 13:36:39;;;;;;;9.80;6.35;;;;;;;;;;2522086;55;21118;-83
2022/09/25 13:41:59;;;;;;;;;;;;;;;;;;2292907;59;21038;-82
2022/09/25 13:45:05;;;;;;;9.63;7.20;;;;;;;;;;2289688;59;20089;-83
2022/09/25 13:47:57;;;;;;;8.40;6.03;;;;;;;;;;2522812;55;21129;-83
2022/09/25 13:53:27;;;;;;;10.35;7.07;;;;;;;;;;2601374;53;22114;-75
2022/09/25 13:56:26;;;;;;;10.38;7.40;;;;;;;;;;2346311;57;21712;-74
2022/09/25 14:01:38;;;;;;;11.05;6.60;;;;;;;;;;2355092;57;22010;-74
2022/09/25 14:04:09;;;;;;;10.40;7.68;;;;;;;;;;2609191;52;21047;-78
2022/09/25 14:06:38;;;;;;;9.27;6.75;;;;;;;;;;2374199;56;21073;-75
2022/09/25 14:09:08;;;;;;;8.40;6.10;;;;;;;;;;2627462;52;21015;-75
2022/09/25 14:11:36;;;;;;;5.22;4.60;;;;;;;;;;2374571;56;21102;-75
2022/09/25 14:14:06;;;;;;;8.70;5.22;;;;;;;;;;2372790;56;21051;-76
2022/09/25 14:16:35;;;;;;;8.60;6.03;;;;;;;;;;2373235;56;21553;-75
2022/09/25 14:19:02;;;;;;;6.28;4.85;;;;;;;;;;2373446;56;21094;-74
2022/09/25 14:21:32;;;;;;;9.55;6.35;;;;;;;;;;2373612;56;21498;-73
2022/09/25 14:24:14;;;;;;;9.88;6.85;;;;;;;;;;2373415;56;21047;-74
2022/09/25 14:26:44;;;;;;;8.52;5.90;;;;;;;;;;2372650;56;21059;-73
2022/09/25 14:29:16;;;;;;;8.88;5.50;;;;;;;;;;2373215;56;21054;-75
2022/09/25 14:31:49;;;;;;;9.32;5.62;;;;;;;;;;2372063;56;21070;-78
2022/09/25 14:34:32;;;;;;;9.10;4.87;;;;;;;;;;2373651;56;22036;-77
2022/09/25 14:37:06;;;;;;;6.15;4.40;;;;;;;;;;2625596;52;21067;-74
2022/09/25 14:39:41;;;;;;;27.02;12.95;;;;;;;;;;2372567;56;21106;-79
2022/09/25 14:42:17;;;;;;;112.75;39.80;;;;;;;;;;2626689;52;21043;-77
2022/09/25 14:45:07;;;;;;;36.35;12.93;;;;;;;;;;2626797;52;21137;-75
2022/09/25 14:47:35;;;;;;;542.75;242.30;;;;;;;;;;2370351;56;21514;-76
2022/09/25 14:50:04;;;;;;;713.30;418.17;;;;;;;;;;2373718;56;21018;-74
2022/09/25 14:52:34;;;;;;;354.98;142.15;;;;;;;;;;2374619;56;21502;-77
2022/09/25 14:55:04;;;;;;;176.90;81.95;;;;;;;;;;2372682;56;21042;-76
2022/09/25 14:57:32;;;;;;;42.78;21.05;;;;;;;;;;2626490;52;21055;-79
2022/09/25 15:00:02;;;;;;;20.35;10.93;;;;;;;;;;2371759;56;21043;-76
2022/09/25 15:02:32;;;;;;;15.40;8.93;;;;;;;;;;2373463;56;21197;-80
2022/09/25 15:05:16;;;;;;;15.13;7.15;;;;;;;;;;2373205;56;21181;-76
2022/09/25 15:07:44;;;;;;;11.48;5.43;;;;;;;;;;2372842;56;21058;-77
2022/09/25 15:10:24;;;;;;;6.90;4.65;;;;;;;;;;2371812;56;21119;-80